Time;durP1;ratioP1;P1;durP2;ratioP2;P2;SDS_P1;SDS_P2;PMS_P1;PMS_P2;Temp;Humidity;BMP_temperature;BMP_pressure;BME280_temperature;BME280_humidity;BME280_pressure;Samples;Min_cycle;Max_cycle;Signal;HPM_P1;HPM_P2
2023/08/19 00:01:19;;;;;;;3.15;2.53;;;29.50;45.90;;;;;;5069386;28;45363;-71
2023/08/19 00:03:46;;;;;;;2.70;2.50;;;29.40;45.80;;;;;;5068797;28;45467;-71
2023/08/19 00:06:31;;;;;;;2.67;2.47;;;29.40;45.80;;;;;;5068325;28;45297;-71
2023/08/19 00:08:58;;;;;;;2.60;2.40;;;29.40;45.90;;;;;;5068919;28;45194;-71
2023/08/19 00:11:24;;;;;;;2.70;2.50;;;29.40;45.90;;;;;;5069017;28;45377;-70
2023/08/19 00:13:51;;;;;;;3.08;2.70;;;29.40;45.90;;;;;;5069115;28;45376;-71
2023/08/19 00:16:20;;;;;;;2.67;2.47;;;29.30;45.90;;;;;;5068804;28;46476;-70
2023/08/19 00:18:46;;;;;;;3.35;2.65;;;29.30;45.80;;;;;;5068882;28;45202;-71
2023/08/19 00:21:13;;;;;;;2.83;2.53;;;29.30;45.90;;;;;;5069022;28;45469;-71
2023/08/19 00:23:40;;;;;;;2.80;2.60;;;29.30;45.90;;;;;;5067359;28;45406;-70
2023/08/19 00:26:07;;;;;;;3.03;2.50;;;29.20;45.90;;;;;;5068633;28;45439;-70
2023/08/19 00:28:34;;;;;;;2.70;2.50;;;29.30;45.90;;;;;;5068762;28;45382;-70
2023/08/19 00:31:01;;;;;;;2.70;2.50;;;29.20;45.80;;;;;;5068814;28;45484;-70
2023/08/19 00:33:30;;;;;;;3.38;2.78;;;29.20;45.90;;;;;;5068199;28;45193;-71
2023/08/19 00:35:56;;;;;;;2.22;2.10;;;29.20;45.90;;;;;;5068338;28;45276;-71
2023/08/19 00:38:23;;;;;;;3.35;2.65;;;29.20;45.80;;;;;;5068533;28;45338;-71
2023/08/19 00:40:50;;;;;;;5.10;2.50;;;29.20;46.00;;;;;;5068785;28;45503;-70
2023/08/19 00:43:17;;;;;;;2.95;2.40;;;29.20;45.90;;;;;;5068282;28;45219;-71
2023/08/19 00:45:45;;;;;;;2.45;2.13;;;29.10;45.80;;;;;;5068789;28;45266;-71
2023/08/19 00:48:12;;;;;;;2.55;2.35;;;29.10;45.90;;;;;;5068720;28;45277;-71
2023/08/19 00:50:40;;;;;;;3.00;2.35;;;29.10;45.90;;;;;;5068663;28;45520;-71
2023/08/19 00:53:07;;;;;;;2.63;2.42;;;29.10;45.90;;;;;;5067895;28;46730;-70
2023/08/19 00:55:34;;;;;;;2.70;2.40;;;29.10;46.00;;;;;;5068272;28;45186;-71
2023/08/19 00:58:03;;;;;;;2.70;2.42;;;29.10;46.00;;;;;;5067578;28;45511;-70
2023/08/19 01:00:30;;;;;;;2.45;2.25;;;29.00;45.90;;;;;;5067956;28;45434;-70
2023/08/19 01:02:57;;;;;;;2.50;2.30;;;29.00;45.90;;;;;;5068015;28;46398;-71
2023/08/19 01:05:24;;;;;;;3.17;2.22;;;29.00;46.00;;;;;;5068156;28;45277;-71
2023/08/19 01:07:54;;;;;;;2.53;2.22;;;29.00;46.00;;;;;;5068365;28;45418;-70
2023/08/19 01:10:23;;;;;;;2.40;2.20;;;29.00;46.00;;;;;;5068356;28;45294;-71
2023/08/19 01:12:56;;;;;;;2.60;2.40;;;29.00;46.00;;;;;;5067836;28;45308;-71
2023/08/19 01:15:26;;;;;;;3.53;2.47;;;28.90;46.10;;;;;;5067794;28;45262;-70
2023/08/19 01:17:52;;;;;;;2.25;2.05;;;28.90;46.10;;;;;;5068087;28;45403;-70
2023/08/19 01:20:19;;;;;;;2.83;2.28;;;28.90;46.00;;;;;;5068221;28;45370;-71
2023/08/19 01:22:50;;;;;;;3.45;2.50;;;28.90;46.00;;;;;;5067729;28;46608;-70
2023/08/19 01:25:19;;;;;;;3.65;2.28;;;28.90;46.10;;;;;;5067525;28;45271;-70
2023/08/19 01:27:45;;;;;;;2.50;2.30;;;28.90;46.20;;;;;;5067869;28;45262;-70
2023/08/19 01:30:14;;;;;;;2.83;2.42;;;28.80;46.10;;;;;;5068198;28;45401;-71
2023/08/19 01:32:40;;;;;;;4.05;2.70;;;28.80;46.10;;;;;;5067539;28;46385;-70
2023/08/19 01:35:07;;;;;;;2.60;2.40;;;28.80;46.20;;;;;;5067334;28;45388;-71
2023/08/19 01:37:37;;;;;;;2.30;2.10;;;28.80;46.20;;;;;;5067645;28;45384;-70
2023/08/19 01:40:05;;;;;;;2.08;1.95;;;28.80;46.20;;;;;;5067835;28;45308;-70
2023/08/19 01:42:33;;;;;;;2.58;2.10;;;28.80;46.20;;;;;;5067396;28;46690;-71
2023/08/19 01:45:00;;;;;;;2.42;2.17;;;28.70;46.20;;;;;;5067264;28;45398;-71
2023/08/19 01:47:27;;;;;;;2.50;2.30;;;28.70;46.20;;;;;;5067557;28;45206;-70
2023/08/19 01:49:53;;;;;;;2.53;2.33;;;28.70;46.30;;;;;;5067597;28;45174;-70
2023/08/19 01:52:21;;;;;;;2.42;2.22;;;28.70;46.30;;;;;;5066368;28;46369;-70
2023/08/19 01:54:48;;;;;;;2.53;2.33;;;28.70;46.40;;;;;;5067186;28;45349;-70
2023/08/19 01:57:14;;;;;;;2.40;2.20;;;28.70;46.40;;;;;;5067404;28;45382;-71
2023/08/19 01:59:43;;;;;;;2.50;2.30;;;28.60;46.30;;;;;;5067492;28;45293;-71
2023/08/19 02:02:09;;;;;;;2.85;2.63;;;28.60;46.30;;;;;;5066944;28;46388;-71
2023/08/19 02:04:36;;;;;;;2.78;2.58;;;28.60;46.40;;;;;;5067194;28;45460;-70
2023/08/19 02:07:03;;;;;;;2.30;2.10;;;28.60;46.40;;;;;;5067177;28;45321;-70
2023/08/19 02:09:30;;;;;;;2.40;2.20;;;28.60;46.40;;;;;;5067342;28;45452;-70
2023/08/19 02:11:57;;;;;;;2.35;2.20;;;28.50;46.40;;;;;;5066751;28;45230;-71
2023/08/19 02:14:24;;;;;;;2.60;2.40;;;28.60;46.50;;;;;;5066961;28;45312;-70
2023/08/19 02:16:52;;;;;;;2.42;2.22;;;28.50;46.40;;;;;;5067198;28;45195;-70
2023/08/19 02:19:19;;;;;;;2.50;2.30;;;28.50;46.50;;;;;;5067135;28;45450;-70
2023/08/19 02:21:46;;;;;;;2.22;2.08;;;28.50;46.50;;;;;;5066694;28;45280;-70
2023/08/19 02:24:13;;;;;;;2.42;2.22;;;28.50;46.50;;;;;;5066666;28;45127;-70
2023/08/19 02:26:39;;;;;;;3.42;2.28;;;28.50;46.60;;;;;;5066955;28;45251;-70
2023/08/19 02:29:06;;;;;;;3.83;2.55;;;28.40;46.50;;;;;;5066979;28;45389;-70
2023/08/19 02:31:33;;;;;;;2.83;2.50;;;28.40;46.60;;;;;;5066584;28;46687;-70
2023/08/19 02:34:01;;;;;;;2.35;2.20;;;28.40;46.60;;;;;;5066523;28;45378;-70
2023/08/19 02:36:28;;;;;;;2.95;2.40;;;28.40;46.70;;;;;;5066021;28;45373;-70
2023/08/19 02:38:55;;;;;;;2.45;2.25;;;28.40;46.70;;;;;;5066808;28;45258;-69
2023/08/19 02:41:22;;;;;;;2.60;2.40;;;28.30;46.60;;;;;;5066200;28;47592;-70
2023/08/19 02:43:50;;;;;;;2.30;2.10;;;28.30;46.60;;;;;;5066538;28;45383;-70
2023/08/19 02:46:16;;;;;;;3.38;2.30;;;28.30;46.70;;;;;;5066636;28;45361;-69
2023/08/19 02:48:43;;;;;;;2.50;2.30;;;28.30;46.60;;;;;;5066234;28;45324;-70
2023/08/19 02:51:11;;;;;;;4.47;2.22;;;28.30;46.70;;;;;;5066364;28;46488;-70
2023/08/19 02:53:38;;;;;;;2.40;2.20;;;28.30;46.70;;;;;;5065940;28;45448;-71
2023/08/19 02:56:06;;;;;;;1.92;1.83;;;28.30;46.70;;;;;;5066477;28;45296;-69
2023/08/19 02:58:33;;;;;;;2.53;2.33;;;28.30;46.70;;;;;;5066552;28;45425;-69
2023/08/19 03:01:00;;;;;;;2.50;2.30;;;28.20;46.60;;;;;;5066161;28;47303;-70
2023/08/19 03:03:28;;;;;;;2.20;2.10;;;28.20;46.70;;;;;;5066260;28;45247;-69
2023/08/19 03:05:59;;;;;;;2.55;2.30;;;28.20;46.70;;;;;;5066044;28;45447;-69
2023/08/19 03:08:27;;;;;;;2.28;2.08;;;28.20;47.30;;;;;;5066439;28;45258;-69
2023/08/19 03:10:53;;;;;;;2.47;2.28;;;28.20;46.70;;;;;;5065999;28;45601;-69
2023/08/19 03:13:20;;;;;;;2.45;2.25;;;28.20;46.70;;;;;;5066071;28;45345;-70
2023/08/19 03:15:47;;;;;;;2.55;2.35;;;28.20;46.80;;;;;;5066110;28;45179;-69
2023/08/19 03:18:15;;;;;;;2.63;2.42;;;28.20;46.80;;;;;;5066297;28;45377;-69
2023/08/19 03:20:41;;;;;;;2.10;2.00;;;28.10;46.70;;;;;;5065847;28;45231;-69
2023/08/19 03:23:08;;;;;;;3.05;2.42;;;28.10;46.70;;;;;;5065202;28;45490;-69
2023/08/19 03:25:36;;;;;;;2.38;2.08;;;28.10;46.70;;;;;;5066045;28;45362;-70
2023/08/19 03:28:04;;;;;;;2.05;1.90;;;28.10;46.80;;;;;;5066176;28;45181;-69
2023/08/19 03:30:31;;;;;;;2.85;2.30;;;28.10;46.80;;;;;;5065825;28;45217;-70
2023/08/19 03:32:57;;;;;;;2.50;2.30;;;28.10;46.80;;;;;;5065801;28;45397;-69
2023/08/19 03:35:24;;;;;;;2.20;2.08;;;28.00;46.80;;;;;;5065901;28;45301;-69
2023/08/19 03:37:51;;;;;;;2.30;2.20;;;28.00;46.80;;;;;;5065990;28;45400;-69
2023/08/19 03:40:18;;;;;;;2.10;1.90;;;28.00;46.80;;;;;;5065613;28;45258;-69
2023/08/19 03:42:46;;;;;;;3.45;2.28;;;28.00;46.80;;;;;;5065871;28;45242;-69
2023/08/19 03:45:13;;;;;;;2.22;2.03;;;27.90;46.80;;;;;;5065784;28;45388;-69
2023/08/19 03:47:40;;;;;;;4.63;2.30;;;28.00;46.90;;;;;;5066076;28;45432;-69
2023/08/19 03:50:07;;;;;;;2.30;2.10;;;28.00;46.90;;;;;;5065551;28;46397;-70
2023/08/19 03:52:34;;;;;;;1.88;1.73;;;28.00;47.00;;;;;;5065318;28;45182;-69
2023/08/19 03:55:01;;;;;;;2.10;1.90;;;27.90;46.90;;;;;;5065581;28;45269;-70
2023/08/19 03:57:28;;;;;;;2.08;1.98;;;27.90;46.90;;;;;;5065855;28;45588;-69
2023/08/19 03:59:56;;;;;;;2.17;2.08;;;27.90;47.00;;;;;;5068473;28;45479;-69
2023/08/19 04:02:23;;;;;;;2.42;2.22;;;27.90;47.10;;;;;;5069147;28;45245;-70
2023/08/19 04:05:00;;;;;;;2.63;2.20;;;27.80;47.00;;;;;;5069003;28;45178;-68
2023/08/19 04:07:26;;;;;;;2.58;2.38;;;27.80;47.10;;;;;;5069268;28;45401;-69
2023/08/19 04:09:54;;;;;;;2.58;1.98;;;27.80;47.10;;;;;;5068665;28;45467;-69
2023/08/19 04:12:21;;;;;;;2.47;2.15;;;27.80;47.10;;;;;;5068228;28;45336;-69
2023/08/19 04:14:48;;;;;;;3.03;2.35;;;27.80;47.10;;;;;;5069066;28;45183;-69
2023/08/19 04:17:16;;;;;;;2.13;2.03;;;27.80;47.20;;;;;;5069175;28;45405;-68
2023/08/19 04:19:42;;;;;;;2.35;2.15;;;27.70;47.10;;;;;;5068667;28;46369;-69
2023/08/19 04:22:11;;;;;;;2.50;2.30;;;27.70;47.10;;;;;;5068724;28;45437;-68
2023/08/19 04:24:37;;;;;;;3.15;2.13;;;27.70;47.10;;;;;;5068697;28;45313;-69
2023/08/19 04:27:04;;;;;;;3.28;2.20;;;27.70;47.20;;;;;;5068761;28;45474;-69
2023/08/19 04:29:32;;;;;;;2.20;2.00;;;27.70;47.30;;;;;;5068633;28;45309;-68
2023/08/19 04:32:02;;;;;;;2.83;2.60;;;27.70;47.30;;;;;;5068489;28;45334;-69
2023/08/19 04:34:30;;;;;;;2.00;1.90;;;27.70;47.30;;;;;;5068600;28;45316;-69
2023/08/19 04:36:57;;;;;;;2.25;2.08;;;27.60;47.30;;;;;;5068714;28;45534;-68
2023/08/19 04:39:24;;;;;;;2.50;2.10;;;27.60;47.20;;;;;;5068426;28;45682;-69
2023/08/19 04:41:53;;;;;;;2.33;2.13;;;27.60;47.30;;;;;;5068174;28;45464;-68
2023/08/19 04:44:20;;;;;;;2.30;2.10;;;27.60;47.30;;;;;;5068505;28;45266;-69
2023/08/19 04:46:46;;;;;;;1.75;1.65;;;27.60;47.10;;;;;;5068796;28;45261;-69
2023/08/19 04:49:13;;;;;;;2.17;2.08;;;27.60;47.20;;;;;;5068405;28;45476;-69
2023/08/19 04:51:42;;;;;;;2.40;2.22;;;27.60;47.30;;;;;;5068036;28;45510;-69
2023/08/19 04:54:09;;;;;;;2.33;1.90;;;27.60;47.30;;;;;;5068245;28;45222;-68
2023/08/19 04:56:36;;;;;;;2.88;2.10;;;27.60;47.20;;;;;;5068467;28;45305;-68
2023/08/19 04:59:02;;;;;;;2.95;2.33;;;27.60;47.20;;;;;;5067359;28;46686;-68
2023/08/19 05:01:29;;;;;;;2.92;1.80;;;27.50;47.10;;;;;;5067942;28;45369;-69
2023/08/19 05:03:56;;;;;;;3.92;2.33;;;27.50;47.10;;;;;;5068023;28;45371;-68
2023/08/19 05:06:23;;;;;;;2.05;1.85;;;27.50;47.10;;;;;;5067900;28;45405;-68
2023/08/19 05:08:51;;;;;;;2.90;2.20;;;27.50;47.10;;;;;;5067689;28;46749;-68
2023/08/19 05:11:18;;;;;;;2.72;2.22;;;27.50;47.10;;;;;;5067106;28;45411;-69
2023/08/19 05:13:45;;;;;;;2.17;1.98;;;27.50;47.10;;;;;;5067696;28;45325;-68
2023/08/19 05:16:11;;;;;;;1.95;1.77;;;27.50;47.10;;;;;;5068077;28;45456;-69
2023/08/19 05:18:38;;;;;;;1.90;1.80;;;27.50;47.20;;;;;;5067546;28;46404;-69
2023/08/19 05:21:05;;;;;;;3.33;1.77;;;27.50;47.20;;;;;;5067577;28;45206;-68
2023/08/19 05:23:32;;;;;;;1.83;1.73;;;27.50;47.20;;;;;;5067770;28;45258;-69
2023/08/19 05:26:00;;;;;;;1.75;1.65;;;27.50;47.20;;;;;;5068247;28;45395;-69
2023/08/19 05:28:27;;;;;;;2.38;2.20;;;27.50;47.20;;;;;;5067786;28;45342;-69
2023/08/19 05:30:54;;;;;;;2.47;2.00;;;27.50;47.20;;;;;;5067911;28;45270;-68
2023/08/19 05:33:21;;;;;;;2.22;2.03;;;27.40;47.20;;;;;;5067861;28;45162;-69
2023/08/19 05:35:47;;;;;;;2.92;2.08;;;27.50;47.20;;;;;;5067637;28;45479;-69
2023/08/19 05:38:14;;;;;;;2.33;2.13;;;27.50;47.20;;;;;;5067385;28;45291;-69
2023/08/19 05:40:41;;;;;;;2.03;1.92;;;27.50;47.20;;;;;;5067505;28;45313;-69
2023/08/19 05:43:09;;;;;;;1.88;1.77;;;27.50;47.20;;;;;;5066908;28;45372;-68
2023/08/19 05:45:36;;;;;;;2.03;1.92;;;27.50;47.20;;;;;;5067650;28;45327;-68
2023/08/19 05:48:03;;;;;;;1.98;1.88;;;27.50;47.20;;;;;;5067313;28;46662;-68
2023/08/19 05:50:30;;;;;;;2.53;1.92;;;27.50;47.20;;;;;;5067353;28;45389;-69
2023/08/19 05:52:57;;;;;;;2.38;1.85;;;27.50;47.20;;;;;;5067250;28;45407;-69
2023/08/19 05:55:24;;;;;;;2.50;2.30;;;27.40;47.20;;;;;;5067533;28;45356;-69
2023/08/19 05:57:50;;;;;;;2.60;2.10;;;27.40;47.20;;;;;;5067202;28;46391;-69
2023/08/19 06:00:19;;;;;;;2.05;1.75;;;27.40;47.20;;;;;;5067207;28;45349;-68
2023/08/19 06:02:46;;;;;;;2.25;2.05;;;27.40;47.20;;;;;;5067480;28;45289;-68
2023/08/19 06:05:13;;;;;;;1.95;1.75;;;27.50;47.30;;;;;;5067282;28;45385;-68
2023/08/19 06:07:40;;;;;;;1.92;1.83;;;27.40;47.20;;;;;;5066926;28;45454;-68
2023/08/19 06:10:07;;;;;;;2.15;1.95;;;27.40;47.20;;;;;;5066940;28;45308;-69
2023/08/19 06:12:34;;;;;;;2.08;1.80;;;27.40;47.20;;;;;;5067230;28;45330;-68
2023/08/19 06:15:01;;;;;;;2.00;1.80;;;27.40;47.30;;;;;;5066741;28;45460;-68
2023/08/19 06:17:29;;;;;;;2.35;2.03;;;27.40;47.20;;;;;;5066696;28;45460;-70
2023/08/19 06:19:56;;;;;;;2.35;2.08;;;27.40;47.30;;;;;;5066701;28;45171;-69
2023/08/19 06:22:22;;;;;;;2.40;1.90;;;27.40;47.20;;;;;;5065611;28;45187;-69
2023/08/19 06:24:49;;;;;;;2.10;1.90;;;27.40;47.20;;;;;;5066820;28;45436;-69
2023/08/19 06:27:16;;;;;;;1.95;1.77;;;27.40;47.20;;;;;;5066200;28;46317;-69
2023/08/19 06:29:43;;;;;;;2.30;2.10;;;27.50;47.30;;;;;;5066336;28;45371;-69
2023/08/19 06:32:11;;;;;;;2.85;1.98;;;27.50;47.30;;;;;;5066595;28;45293;-69
2023/08/19 06:34:40;;;;;;;1.98;1.80;;;27.50;47.30;;;;;;5066568;28;45432;-69
2023/08/19 06:37:07;;;;;;;2.15;1.95;;;27.50;47.30;;;;;;5066399;28;45353;-69
2023/08/19 06:39:34;;;;;;;2.22;2.10;;;27.50;47.20;;;;;;5066448;28;45380;-69
2023/08/19 06:42:02;;;;;;;2.45;1.88;;;27.50;47.20;;;;;;5066539;28;45122;-69
2023/08/19 06:44:29;;;;;;;2.28;2.08;;;27.50;47.20;;;;;;5066635;28;45294;-69
2023/08/19 06:46:57;;;;;;;2.60;2.05;;;27.50;47.20;;;;;;5066210;28;45489;-70
2023/08/19 06:49:24;;;;;;;1.80;1.70;;;27.50;47.20;;;;;;5066281;28;45240;-69
2023/08/19 06:51:53;;;;;;;2.42;2.13;;;27.50;47.20;;;;;;5066460;28;45284;-70
2023/08/19 06:54:20;;;;;;;1.98;1.88;;;27.50;47.20;;;;;;5066605;28;45435;-70
2023/08/19 06:56:51;;;;;;;1.88;1.70;;;27.50;47.10;;;;;;5066168;28;46679;-70
2023/08/19 06:59:20;;;;;;;1.90;1.70;;;27.50;47.10;;;;;;5066195;28;45334;-70
2023/08/19 07:01:50;;;;;;;2.08;1.98;;;27.50;47.10;;;;;;5066473;28;45388;-70
2023/08/19 07:04:17;;;;;;;2.55;1.83;;;27.60;47.20;;;;;;5066466;28;45423;-70
2023/08/19 07:06:43;;;;;;;3.20;1.67;;;27.60;47.10;;;;;;5066048;28;45263;-70
2023/08/19 07:09:12;;;;;;;1.92;1.83;;;27.60;47.00;;;;;;5066236;28;45443;-71
2023/08/19 07:11:39;;;;;;;2.03;1.83;;;27.60;46.90;;;;;;5066321;28;45584;-70
2023/08/19 07:14:06;;;;;;;2.25;1.90;;;27.70;47.00;;;;;;5066119;28;45468;-70
2023/08/19 07:16:34;;;;;;;2.22;2.00;;;27.70;46.90;;;;;;5065361;28;46523;-70
2023/08/19 07:19:02;;;;;;;3.38;2.10;;;27.70;46.90;;;;;;5065949;28;45367;-71
2023/08/19 07:21:29;;;;;;;2.13;1.77;;;27.70;46.90;;;;;;5066250;28;45265;-70
2023/08/19 07:23:58;;;;;;;2.35;1.60;;;27.80;46.90;;;;;;5066155;28;45218;-70
2023/08/19 07:26:27;;;;;;;2.65;1.90;;;27.80;46.80;;;;;;5065787;28;46693;-70
2023/08/19 07:28:55;;;;;;;2.00;1.85;;;27.80;46.80;;;;;;5066088;28;45317;-70
2023/08/19 07:31:22;;;;;;;4.38;1.65;;;27.90;46.80;;;;;;5066149;28;45246;-71
2023/08/19 07:33:49;;;;;;;1.77;1.67;;;27.90;46.80;;;;;;5068024;28;45266;-70
2023/08/19 07:36:16;;;;;;;1.90;1.70;;;27.90;46.70;;;;;;5069503;28;46664;-69
2023/08/19 07:38:43;;;;;;;2.83;1.92;;;28.00;46.80;;;;;;5069480;28;45486;-69
2023/08/19 07:41:09;;;;;;;2.33;1.83;;;28.00;46.80;;;;;;5069682;28;45349;-69
2023/08/19 07:43:38;;;;;;;2.13;1.90;;;28.00;46.80;;;;;;5069737;28;45590;-70
2023/08/19 07:46:04;;;;;;;3.65;1.80;;;28.00;46.70;;;;;;5069318;28;46731;-71
2023/08/19 07:48:32;;;;;;;1.80;1.70;;;28.00;46.70;;;;;;5069609;28;45657;-70
2023/08/19 07:50:58;;;;;;;2.20;1.90;;;28.00;46.70;;;;;;5069728;28;45341;-70
2023/08/19 07:53:25;;;;;;;1.92;1.83;;;28.10;47.30;;;;;;5069208;28;45465;-70
2023/08/19 07:55:52;;;;;;;2.08;1.90;;;28.10;46.80;;;;;;5068607;28;45455;-69
2023/08/19 07:58:19;;;;;;;2.78;1.67;;;28.10;46.80;;;;;;5069320;28;45167;-71
2023/08/19 08:00:47;;;;;;;1.77;1.67;;;28.10;46.90;;;;;;5069302;28;45283;-70
2023/08/19 08:03:14;;;;;;;2.33;2.10;;;28.10;46.70;;;;;;5068735;28;45257;-70
2023/08/19 08:05:41;;;;;;;2.60;1.70;;;28.10;46.80;;;;;;5068314;28;46318;-70
2023/08/19 08:08:08;;;;;;;2.38;1.98;;;28.20;47.00;;;;;;5069071;28;45258;-70
2023/08/19 08:10:34;;;;;;;3.03;1.95;;;28.20;47.00;;;;;;5069102;28;45440;-69
2023/08/19 08:13:01;;;;;;;3.60;2.05;;;28.20;47.00;;;;;;5068891;28;45456;-69
2023/08/19 08:15:28;;;;;;;2.42;1.90;;;28.20;47.50;;;;;;5068777;28;45465;-71
2023/08/19 08:17:56;;;;;;;2.13;1.88;;;28.30;47.50;;;;;;5068958;28;45223;-70
2023/08/19 08:20:23;;;;;;;2.08;1.95;;;28.30;47.50;;;;;;5069095;28;45301;-70
2023/08/19 08:22:50;;;;;;;4.78;1.90;;;28.30;47.50;;;;;;5069081;28;45365;-70
2023/08/19 08:25:17;;;;;;;1.90;1.80;;;28.40;47.40;;;;;;5068453;28;48456;-70
2023/08/19 08:27:43;;;;;;;2.35;2.15;;;28.40;47.80;;;;;;5068462;28;45380;-71
2023/08/19 08:30:11;;;;;;;2.45;2.25;;;28.40;48.60;;;;;;5068774;28;45369;-70
2023/08/19 08:32:38;;;;;;;2.50;2.30;;;28.50;48.10;;;;;;5069128;28;45261;-70
2023/08/19 08:35:07;;;;;;;5.45;2.22;;;28.50;48.30;;;;;;5068431;28;45383;-69
2023/08/19 08:37:34;;;;;;;2.65;2.25;;;28.60;48.50;;;;;;5068445;28;45306;-69
2023/08/19 08:40:01;;;;;;;3.25;2.55;;;28.60;48.60;;;;;;5068478;28;45296;-70
2023/08/19 08:42:28;;;;;;;6.10;2.42;;;28.70;48.80;;;;;;5068761;28;45325;-70
2023/08/19 08:44:54;;;;;;;4.78;2.75;;;28.70;48.90;;;;;;5067304;28;46565;-70
2023/08/19 08:47:21;;;;;;;5.68;2.75;;;28.70;48.90;;;;;;5068138;28;45344;-71
2023/08/19 08:49:48;;;;;;;3.53;2.30;;;28.80;48.80;;;;;;5067561;28;45326;-69
2023/08/19 08:52:16;;;;;;;2.58;2.30;;;28.80;48.60;;;;;;5067421;28;45484;-67
2023/08/19 08:54:43;;;;;;;3.00;2.60;;;28.80;48.30;;;;;;5067471;28;46727;-68
2023/08/19 08:57:12;;;;;;;2.20;2.00;;;28.90;48.20;;;;;;5067560;28;45324;-68
2023/08/19 08:59:39;;;;;;;4.13;2.50;;;28.90;47.90;;;;;;5067697;28;45395;-68
2023/08/19 09:02:06;;;;;;;3.63;2.30;;;28.90;47.70;;;;;;5067871;28;45320;-69
2023/08/19 09:04:33;;;;;;;4.30;2.50;;;28.90;47.70;;;;;;5067131;28;46910;-68
2023/08/19 09:07:04;;;;;;;2.72;2.50;;;29.00;47.70;;;;;;5063717;28;45424;-68
2023/08/19 09:09:33;;;;;;;5.25;2.58;;;29.00;47.80;;;;;;5063613;28;45396;-68
2023/08/19 09:12:00;;;;;;;5.40;2.58;;;29.00;47.60;;;;;;5067716;28;45416;-69
2023/08/19 09:14:29;;;;;;;4.60;2.60;;;29.10;47.70;;;;;;5067097;28;46400;-68
2023/08/19 09:16:56;;;;;;;3.90;2.63;;;29.10;47.60;;;;;;5065094;28;45447;-68
2023/08/19 09:19:23;;;;;;;3.25;2.30;;;29.10;48.10;;;;;;5059450;28;45290;-69
2023/08/19 09:21:50;;;;;;;4.78;2.28;;;29.20;47.60;;;;;;5067727;28;45630;-68
2023/08/19 09:24:17;;;;;;;2.40;2.20;;;29.20;47.70;;;;;;5067176;28;47346;-68
2023/08/19 09:26:45;;;;;;;3.30;2.10;;;29.30;47.70;;;;;;5066060;28;45642;-69
2023/08/19 09:29:12;;;;;;;5.55;2.53;;;29.30;47.50;;;;;;5066423;28;45640;-69
2023/08/19 09:31:39;;;;;;;6.75;2.40;;;29.40;47.40;;;;;;5067318;28;45237;-69
2023/08/19 09:34:06;;;;;;;2.50;2.30;;;29.40;47.20;;;;;;5066679;28;46725;-70
2023/08/19 09:36:33;;;;;;;5.95;2.33;;;29.50;47.20;;;;;;5066922;28;45363;-69
2023/08/19 09:38:59;;;;;;;5.57;2.42;;;29.50;47.10;;;;;;5066143;28;45400;-69
2023/08/19 09:41:27;;;;;;;4.18;2.40;;;29.50;46.90;;;;;;5067205;28;45573;-69
2023/08/19 09:43:56;;;;;;;3.47;2.63;;;29.60;46.80;;;;;;5066824;28;45475;-69
2023/08/19 09:46:32;;;;;;;5.22;2.40;;;29.60;46.40;;;;;;5065401;28;45410;-69
2023/08/19 09:48:58;;;;;;;4.63;2.58;;;29.60;46.10;;;;;;5067146;28;45390;-69
2023/08/19 09:51:26;;;;;;;3.78;2.30;;;29.70;45.90;;;;;;5067096;28;45482;-69
2023/08/19 09:53:53;;;;;;;4.10;2.20;;;29.70;46.00;;;;;;5059472;28;47542;-70
2023/08/19 09:56:21;;;;;;;3.55;2.40;;;29.80;46.30;;;;;;5065725;28;45256;-69
2023/08/19 09:58:49;;;;;;;3.05;2.30;;;29.80;46.30;;;;;;5067189;28;45441;-69
2023/08/19 10:01:17;;;;;;;4.80;2.60;;;29.80;46.40;;;;;;5065928;28;45711;-69
2023/08/19 10:03:44;;;;;;;2.65;2.28;;;29.90;46.70;;;;;;5065358;28;46876;-69
2023/08/19 10:06:11;;;;;;;3.22;2.10;;;29.90;45.50;;;;;;5066492;28;45329;-68
2023/08/19 10:08:39;;;;;;;4.22;2.30;;;29.90;45.20;;;;;;5060259;28;45562;-69
2023/08/19 10:11:06;;;;;;;2.25;2.05;;;30.00;45.00;;;;;;5060271;28;45490;-69
2023/08/19 10:13:33;;;;;;;4.22;2.30;;;30.00;45.10;;;;;;5066616;28;46689;-69
2023/08/19 10:16:00;;;;;;;3.85;2.30;;;30.00;44.90;;;;;;5062268;28;45254;-70
2023/08/19 10:18:29;;;;;;;2.53;2.28;;;30.10;44.70;;;;;;5057777;28;45409;-68
2023/08/19 10:20:58;;;;;;;3.40;2.30;;;30.10;44.50;;;;;;5054931;28;45332;-69
2023/08/19 10:23:24;;;;;;;3.92;2.28;;;30.20;44.60;;;;;;5059085;28;46372;-69
2023/08/19 10:25:51;;;;;;;4.10;2.80;;;30.20;44.50;;;;;;5066272;28;45274;-69
2023/08/19 10:28:23;;;;;;;4.00;2.00;;;30.20;44.40;;;;;;5063286;28;45445;-70
2023/08/19 10:31:04;;;;;;;2.58;2.13;;;30.20;44.30;;;;;;5047205;28;45199;-69
2023/08/19 10:33:39;;;;;;;4.22;2.28;;;30.30;44.30;;;;;;5065019;28;46946;-70
2023/08/19 10:36:06;;;;;;;3.63;2.05;;;30.30;44.30;;;;;;5064094;28;45412;-69
2023/08/19 10:38:46;;;;;;;4.63;2.40;;;30.30;44.40;;;;;;5048409;28;45335;-69
2023/08/19 10:41:28;;;;;;;6.90;2.55;;;30.40;45.10;;;;;;5061643;28;45226;-69
2023/08/19 10:43:56;;;;;;;2.20;2.03;;;30.50;44.50;;;;;;5065826;28;47746;-69
2023/08/19 10:46:32;;;;;;;2.40;2.03;;;30.50;44.40;;;;;;5064546;28;45452;-69
2023/08/19 10:49:00;;;;;;;5.93;2.33;;;30.50;44.00;;;;;;5062014;28;45474;-69
2023/08/19 10:51:53;;;;;;;3.25;2.20;;;30.60;43.60;;;;;;5045972;28;45319;-69
2023/08/19 10:54:31;;;;;;;2.30;2.10;;;30.60;43.40;;;;;;5062548;28;45478;-70
2023/08/19 10:57:07;;;;;;;3.17;2.30;;;30.70;42.80;;;;;;5064751;28;45404;-69
2023/08/19 10:59:34;;;;;;;2.05;1.85;;;30.80;42.80;;;;;;5058460;28;45415;-69
2023/08/19 11:02:01;;;;;;;3.42;2.30;;;30.80;42.70;;;;;;5061418;28;45466;-68
2023/08/19 11:04:29;;;;;;;2.10;1.90;;;30.80;42.40;;;;;;5065215;28;45427;-69
2023/08/19 11:06:57;;;;;;;2.80;2.15;;;30.90;43.20;;;;;;5065330;28;45352;-69
2023/08/19 11:09:26;;;;;;;3.63;2.33;;;31.00;42.60;;;;;;5065415;28;45393;-69
2023/08/19 11:11:53;;;;;;;4.05;2.45;;;31.00;42.70;;;;;;5065516;28;45384;-69
2023/08/19 11:14:20;;;;;;;3.85;2.20;;;31.10;42.30;;;;;;5064846;28;46972;-69
2023/08/19 11:16:49;;;;;;;3.13;2.58;;;31.20;42.00;;;;;;5058210;28;45515;-71
2023/08/19 11:19:17;;;;;;;4.88;2.30;;;31.30;42.10;;;;;;5059827;28;45481;-72
2023/08/19 11:21:45;;;;;;;4.55;2.55;;;31.30;40.70;;;;;;5050558;28;45612;-73
2023/08/19 11:24:12;;;;;;;9.23;3.50;;;31.50;41.20;;;;;;5062298;28;46299;-74
2023/08/19 11:26:39;;;;;;;6.38;4.78;;;31.50;40.00;;;;;;5065115;28;45306;-72
2023/08/19 11:29:06;;;;;;;5.97;4.47;;;31.60;39.90;;;;;;5066058;28;44664;-73
2023/08/19 11:31:33;;;;;;;5.88;4.05;;;31.70;39.90;;;;;;5064480;28;45317;-73
2023/08/19 11:34:00;;;;;;;6.18;4.22;;;31.80;39.80;;;;;;5063900;28;45372;-72
2023/08/19 11:36:27;;;;;;;4.65;3.97;;;31.90;39.50;;;;;;5061904;28;45511;-72
2023/08/19 11:38:56;;;;;;;7.30;3.65;;;31.90;39.50;;;;;;5064311;28;45282;-73
2023/08/19 11:41:23;;;;;;;5.78;3.30;;;32.10;39.50;;;;;;5056839;28;45454;-73
2023/08/19 11:43:53;;;;;;;5.22;3.17;;;32.10;38.70;;;;;;5053536;28;45715;-73
2023/08/19 11:46:20;;;;;;;4.57;2.75;;;32.20;38.70;;;;;;5049313;28;45232;-71
2023/08/19 11:48:47;;;;;;;3.28;2.97;;;32.20;39.00;;;;;;5062988;28;45413;-71
2023/08/19 11:51:14;;;;;;;5.20;2.88;;;32.30;38.40;;;;;;5064267;28;45426;-71
2023/08/19 11:53:41;;;;;;;6.38;2.70;;;32.30;38.40;;;;;;5057365;28;45458;-71
2023/08/19 11:56:10;;;;;;;7.90;3.72;;;32.40;38.10;;;;;;5045409;28;45401;-72
2023/08/19 11:58:49;;;;;;;6.55;2.90;;;32.50;38.40;;;;;;5062886;28;45369;-70
2023/08/19 12:01:15;;;;;;;6.25;3.00;;;32.50;38.00;;;;;;5059540;28;45548;-71
2023/08/19 12:03:43;;;;;;;5.10;2.75;;;32.50;38.20;;;;;;5045130;28;45337;-71
2023/08/19 12:06:10;;;;;;;6.57;2.50;;;32.50;38.30;;;;;;5045338;28;45253;-72
2023/08/19 12:08:40;;;;;;;5.47;3.03;;;32.50;39.40;;;;;;5045375;28;45448;-70
2023/08/19 12:11:07;;;;;;;5.18;3.03;;;32.50;39.20;;;;;;5048016;28;45407;-68
2023/08/19 12:13:35;;;;;;;3.58;2.70;;;32.60;38.80;;;;;;5053813;28;46363;-69
2023/08/19 12:16:02;;;;;;;5.40;2.70;;;32.60;38.80;;;;;;5065091;28;45320;-68
2023/08/19 12:18:30;;;;;;;4.32;2.67;;;32.60;38.80;;;;;;5052638;28;45293;-70
2023/08/19 12:20:57;;;;;;;5.85;2.42;;;32.60;38.60;;;;;;5066552;28;45417;-70
2023/08/19 12:23:24;;;;;;;7.10;3.13;;;32.70;38.80;;;;;;5068626;28;45306;-69
2023/08/19 12:25:51;;;;;;;4.13;3.00;;;32.70;38.90;;;;;;5066535;28;45242;-69
2023/08/19 12:28:18;;;;;;;3.15;2.60;;;32.70;39.00;;;;;;5064164;28;45314;-69
2023/08/19 12:30:47;;;;;;;5.85;2.88;;;32.70;39.10;;;;;;5068895;28;45394;-69
2023/08/19 12:33:14;;;;;;;4.55;2.63;;;32.80;39.10;;;;;;5054467;28;45402;-70
2023/08/19 12:35:44;;;;;;;5.78;2.90;;;32.80;39.10;;;;;;5060331;28;45458;-70
2023/08/19 12:38:12;;;;;;;5.65;2.78;;;32.80;39.50;;;;;;5061600;28;45424;-70
2023/08/19 12:40:39;;;;;;;3.13;2.22;;;32.80;39.60;;;;;;5063698;28;45304;-71
2023/08/19 12:43:05;;;;;;;7.10;2.92;;;32.90;39.60;;;;;;5061093;28;45483;-69
2023/08/19 12:45:32;;;;;;;11.65;6.97;;;32.90;39.40;;;;;;5061314;28;45304;-70
2023/08/19 12:48:00;;;;;;;7.70;6.63;;;32.90;39.90;;;;;;5068963;28;45321;-70
2023/08/19 12:50:27;;;;;;;4.45;4.00;;;33.00;39.10;;;;;;5067955;28;45402;-70